createdAt,value
2022-10-19T00:02:06.392Z,2.38
2022-10-19T00:05:08.427Z,2.15
2022-10-19T00:08:10.261Z,2.63
2022-10-19T00:11:12.669Z,2.58
2022-10-19T00:14:17.926Z,2.53
2022-10-19T00:17:19.782Z,2.60
2022-10-19T00:20:21.703Z,2.10
2022-10-19T00:23:23.564Z,2.20
2022-10-19T00:26:25.495Z,2.28
2022-10-19T00:29:27.530Z,2.45
2022-10-19T00:32:29.361Z,2.55
2022-10-19T00:35:31.226Z,2.50
2022-10-19T00:38:33.132Z,2.55
2022-10-19T00:41:35.766Z,1.98
2022-10-19T00:44:37.638Z,1.85
2022-10-19T00:47:39.663Z,2.28
2022-10-19T00:50:41.563Z,2.80
2022-10-19T00:53:43.548Z,2.55
2022-10-19T00:56:46.259Z,2.75
2022-10-19T00:59:48.097Z,2.40
2022-10-19T01:02:49.988Z,2.33
2022-10-19T01:05:51.848Z,2.42
2022-10-19T01:08:53.752Z,2.92
2022-10-19T01:12:08.318Z,2.40
2022-10-19T01:15:19.136Z,2.22
2022-10-19T01:18:30.503Z,2.88
2022-10-19T01:21:44.442Z,2.28
2022-10-19T01:25:20.490Z,2.63
2022-10-19T01:28:43.430Z,2.42
2022-10-19T01:31:57.451Z,2.30
2022-10-19T01:35:15.264Z,2.88
2022-10-19T01:38:37.399Z,2.60
2022-10-19T01:41:55.281Z,2.17
2022-10-19T01:45:14.212Z,2.47
2022-10-19T01:48:22.144Z,2.25
2022-10-19T01:51:27.859Z,2.58
2022-10-19T01:54:32.691Z,2.10
2022-10-19T01:57:36.740Z,2.25
2022-10-19T02:00:40.140Z,2.50
2022-10-19T02:03:41.986Z,2.40
2022-10-19T02:06:43.809Z,2.83
2022-10-19T02:09:45.659Z,2.53
2022-10-19T02:12:47.838Z,2.40
2022-10-19T02:15:51.200Z,2.05
2022-10-19T02:18:53.100Z,2.17
2022-10-19T02:21:54.979Z,2.17
2022-10-19T02:24:56.851Z,2.40
2022-10-19T02:27:59.640Z,2.30
2022-10-19T02:31:01.500Z,2.67
2022-10-19T02:34:03.419Z,2.53
2022-10-19T02:37:05.651Z,2.55
2022-10-19T02:40:07.923Z,2.70
2022-10-19T02:43:19.200Z,2.55
2022-10-19T02:46:26.030Z,2.90
2022-10-19T02:49:28.448Z,2.47
2022-10-19T02:55:32.512Z,2.75
2022-10-19T02:58:34.437Z,2.60
2022-10-19T03:01:36.320Z,2.95
2022-10-19T03:04:38.290Z,2.75
2022-10-19T03:07:41.492Z,3.10
2022-10-19T03:10:43.326Z,3.05
2022-10-19T03:13:45.179Z,3.17
2022-10-19T03:16:47.093Z,3.13
2022-10-19T03:19:48.999Z,3.03
2022-10-19T03:22:50.910Z,3.33
2022-10-19T03:25:52.740Z,3.55
2022-10-19T03:28:54.652Z,3.13
2022-10-19T03:31:56.600Z,3.42
2022-10-19T03:34:58.448Z,3.08
2022-10-19T03:38:00.303Z,3.30
2022-10-19T03:41:05.316Z,3.05
2022-10-19T03:44:07.672Z,4.00
2022-10-19T03:47:09.541Z,3.15
2022-10-19T03:50:14.106Z,3.55
2022-10-19T03:53:15.950Z,4.18
2022-10-19T03:56:18.937Z,3.67
2022-10-19T03:59:21.822Z,3.50
2022-10-19T04:02:23.669Z,3.50
2022-10-19T04:05:25.511Z,3.92
2022-10-19T04:08:27.362Z,3.95
2022-10-19T04:11:30.022Z,4.68
2022-10-19T04:14:32.884Z,4.28
2022-10-19T04:17:40.920Z,4.07
2022-10-19T04:20:43.927Z,4.50
2022-10-19T04:23:45.773Z,4.15
2022-10-19T04:26:49.205Z,3.97
2022-10-19T04:29:51.036Z,4.30
2022-10-19T04:32:52.925Z,4.25
2022-10-19T04:36:01.779Z,4.20
2022-10-19T04:39:04.560Z,4.38
2022-10-19T04:42:06.474Z,4.22
2022-10-19T04:45:08.720Z,3.83
2022-10-19T04:48:10.551Z,4.93
2022-10-19T04:51:12.736Z,4.65
2022-10-19T04:54:14.574Z,4.63
2022-10-19T04:57:16.414Z,4.70
2022-10-19T05:00:18.355Z,5.40
2022-10-19T05:03:20.274Z,5.30
2022-10-19T05:06:22.220Z,5.40
2022-10-19T05:09:24.239Z,5.68
2022-10-19T05:12:26.081Z,5.53
2022-10-19T05:15:28.404Z,5.85
2022-10-19T05:18:33.706Z,6.65
2022-10-19T05:24:37.304Z,5.68
2022-10-19T05:27:39.220Z,5.47
2022-10-19T05:30:43.337Z,5.70
2022-10-19T05:33:47.398Z,5.85
2022-10-19T05:36:49.231Z,5.90
2022-10-19T05:39:51.113Z,6.00
2022-10-19T05:42:52.957Z,6.00
2022-10-19T05:45:54.788Z,6.30
2022-10-19T05:48:57.047Z,5.55
2022-10-19T05:51:58.901Z,6.20
2022-10-19T05:55:00.754Z,5.80
2022-10-19T05:58:02.583Z,5.65
2022-10-19T06:01:04.759Z,5.45
2022-10-19T06:04:07.424Z,5.75
2022-10-19T06:07:09.315Z,5.10
2022-10-19T06:10:11.283Z,5.47
2022-10-19T06:13:13.339Z,5.03
2022-10-19T06:16:15.851Z,5.20
2022-10-19T06:22:19.544Z,4.90
2022-10-19T06:25:21.503Z,5.47
2022-10-19T06:28:23.351Z,5.93
2022-10-19T06:31:25.184Z,5.88
2022-10-19T06:34:27.614Z,5.38
2022-10-19T06:40:31.415Z,6.25
2022-10-19T06:43:33.555Z,5.38
2022-10-19T06:46:36.783Z,5.88
2022-10-19T06:49:38.600Z,5.65
2022-10-19T06:52:40.935Z,5.78
2022-10-19T06:55:42.786Z,5.82
2022-10-19T06:58:44.663Z,5.65
2022-10-19T07:01:46.541Z,6.47
2022-10-19T07:04:48.481Z,5.43
2022-10-19T07:07:50.356Z,5.88
2022-10-19T07:10:52.987Z,5.70
2022-10-19T07:16:56.635Z,6.20
2022-10-19T07:19:58.550Z,6.18
2022-10-19T07:23:00.418Z,5.78
2022-10-19T07:26:12.309Z,5.72
2022-10-19T07:29:14.171Z,5.63
2022-10-19T07:32:16.086Z,5.13
2022-10-19T07:35:17.977Z,4.90
2022-10-19T07:38:19.830Z,5.10
2022-10-19T07:41:22.715Z,5.30
2022-10-19T07:44:24.701Z,4.82
2022-10-19T07:47:26.553Z,4.88
2022-10-19T07:50:28.620Z,4.85
2022-10-19T07:53:30.535Z,5.32
2022-10-19T07:56:32.505Z,4.90
2022-10-19T07:59:34.590Z,4.72
2022-10-19T08:02:54.641Z,4.72
2022-10-19T08:06:02.252Z,4.25
2022-10-19T08:09:05.306Z,4.55
2022-10-19T08:12:07.333Z,6.35
2022-10-19T08:15:09.612Z,8.10
2022-10-19T08:18:11.615Z,4.18
2022-10-19T08:21:13.460Z,4.63
2022-10-19T08:24:16.660Z,5.07
2022-10-19T08:27:18.489Z,4.35
2022-10-19T08:30:20.380Z,7.40
2022-10-19T08:33:22.211Z,4.90
2022-10-19T08:36:24.229Z,4.93
2022-10-19T08:39:26.095Z,4.15
2022-10-19T08:42:33.317Z,4.60
2022-10-19T08:45:50.953Z,4.53
2022-10-19T08:48:52.851Z,5.13
2022-10-19T08:52:04.239Z,4.88
2022-10-19T08:55:15.263Z,4.70
2022-10-19T08:58:46.905Z,4.93
2022-10-19T09:01:58.499Z,5.07
2022-10-19T09:05:04.047Z,4.67
2022-10-19T09:08:07.279Z,4.90
2022-10-19T09:11:09.850Z,5.10
2022-10-19T09:14:24.717Z,5.32
2022-10-19T09:17:26.630Z,5.13
2022-10-19T09:20:39.306Z,5.25
2022-10-19T09:24:16.380Z,5.20
2022-10-19T09:27:23.123Z,5.07
2022-10-19T09:30:25.036Z,5.00
2022-10-19T09:33:37.328Z,5.07
2022-10-19T09:36:56.968Z,4.82
2022-10-19T09:39:59.095Z,4.95
2022-10-19T09:46:19.764Z,4.85
2022-10-19T09:49:44.759Z,4.57
2022-10-19T09:52:51.356Z,5.28
2022-10-19T09:56:08.936Z,4.78
2022-10-19T09:59:23.161Z,5.22
2022-10-19T10:02:32.219Z,5.13
2022-10-19T10:05:38.908Z,4.93
2022-10-19T10:08:52.780Z,5.45
2022-10-19T10:11:57.007Z,5.43
2022-10-19T10:14:59.191Z,5.20
2022-10-19T10:18:01.085Z,4.85
2022-10-19T10:24:13.730Z,4.40
2022-10-19T10:27:28.380Z,4.95
2022-10-19T10:30:34.457Z,5.60
2022-10-19T10:33:44.590Z,5.72
2022-10-19T10:36:50.362Z,4.75
2022-10-19T10:39:53.238Z,5.47
2022-10-19T10:42:56.851Z,5.43
2022-10-19T10:46:12.630Z,5.60
2022-10-19T10:49:21.739Z,5.40
2022-10-19T10:52:23.587Z,5.13
2022-10-19T10:55:26.710Z,5.70
2022-10-19T10:58:35.563Z,5.05
2022-10-19T11:01:45.285Z,5.03
2022-10-19T11:04:52.573Z,5.43
2022-10-19T11:08:17.290Z,5.60
2022-10-19T11:11:24.081Z,5.68
2022-10-19T11:14:46.113Z,5.25
2022-10-19T11:18:08.206Z,5.82
2022-10-19T11:21:10.495Z,6.00
2022-10-19T11:24:50.147Z,5.22
2022-10-19T11:28:16.057Z,5.90
2022-10-19T11:31:34.984Z,5.85
2022-10-19T11:35:14.447Z,5.43
2022-10-19T11:38:46.347Z,5.60
2022-10-19T11:41:53.826Z,5.80
2022-10-19T11:45:32.938Z,5.63
2022-10-19T11:48:55.022Z,5.25
2022-10-19T11:52:46.487Z,4.82
2022-10-19T11:56:44.715Z,5.60
2022-10-19T12:00:39.328Z,5.63
2022-10-19T12:03:59.455Z,5.82
2022-10-19T12:07:19.982Z,6.00
2022-10-19T12:10:43.344Z,6.50
2022-10-19T12:13:49.256Z,7.47
2022-10-19T12:16:54.816Z,6.32
2022-10-19T12:20:00.100Z,6.20
2022-10-19T12:23:05.101Z,6.10
2022-10-19T12:26:08.829Z,6.40
2022-10-19T12:29:20.112Z,5.80
2022-10-19T12:32:21.995Z,5.97
2022-10-19T12:35:45.673Z,5.97
2022-10-19T12:39:00.906Z,5.80
2022-10-19T12:42:44.179Z,5.10
2022-10-19T12:45:52.626Z,4.90
2022-10-19T12:49:26.606Z,5.07
2022-10-19T12:52:41.938Z,4.60
2022-10-19T12:55:45.668Z,5.10
2022-10-19T12:58:49.930Z,5.45
2022-10-19T13:01:51.940Z,6.82
2022-10-19T13:04:53.846Z,5.90
2022-10-19T13:11:14.780Z,6.43
2022-10-19T13:14:42.939Z,6.32
2022-10-19T13:17:46.239Z,6.43
2022-10-19T13:20:52.607Z,6.43
2022-10-19T13:23:54.456Z,7.45
2022-10-19T13:27:02.568Z,5.75
2022-10-19T13:30:04.846Z,5.82
2022-10-19T13:33:35.061Z,6.93
2022-10-19T13:36:39.396Z,6.10
2022-10-19T13:39:41.221Z,5.65
2022-10-19T13:42:43.070Z,6.63
2022-10-19T13:45:53.357Z,6.70
2022-10-19T13:49:17.503Z,11.68
2022-10-19T13:53:01.451Z,8.00
2022-10-19T13:56:09.167Z,7.38
2022-10-19T13:59:28.058Z,10.23
2022-10-19T14:02:40.928Z,7.85
2022-10-19T14:05:48.767Z,6.28
2022-10-19T14:09:05.480Z,7.28
2022-10-19T14:12:20.079Z,6.90
2022-10-19T14:15:32.509Z,6.65
2022-10-19T14:18:35.724Z,6.63
2022-10-19T14:21:37.515Z,7.25
2022-10-19T14:24:39.375Z,10.57
2022-10-19T14:27:41.212Z,28.45
2022-10-19T14:30:43.195Z,22.10
2022-10-19T14:36:50.783Z,18.10
2022-10-19T14:40:03.449Z,10.05
2022-10-19T14:43:20.736Z,8.43
2022-10-19T14:46:26.313Z,8.30
2022-10-19T14:49:28.268Z,7.20
2022-10-19T14:52:37.492Z,8.63
2022-10-19T14:55:39.369Z,7.38
2022-10-19T14:59:01.488Z,8.70
2022-10-19T15:02:25.908Z,8.35
2022-10-19T15:05:29.517Z,9.25
2022-10-19T15:08:43.712Z,8.52
2022-10-19T15:11:46.882Z,8.80
2022-10-19T15:14:48.741Z,8.35
2022-10-19T15:17:54.918Z,10.52
2022-10-19T15:21:12.612Z,8.55
2022-10-19T15:24:26.469Z,8.77
2022-10-19T15:27:33.326Z,10.65
2022-10-19T15:30:35.171Z,9.23
2022-10-19T15:33:49.612Z,9.30
2022-10-19T15:36:58.655Z,10.60
2022-10-19T15:40:00.561Z,9.13
2022-10-19T15:43:34.256Z,8.95
2022-10-19T15:46:47.001Z,9.65
2022-10-19T15:49:57.173Z,8.13
2022-10-19T15:52:59.630Z,8.82
2022-10-19T15:56:01.573Z,9.63
2022-10-19T15:59:05.547Z,10.27
2022-10-19T16:02:22.065Z,10.15
2022-10-19T16:05:30.795Z,9.70
2022-10-19T16:08:40.197Z,9.68
2022-10-19T16:11:45.489Z,9.98
2022-10-19T16:14:47.678Z,10.52
2022-10-19T16:18:01.806Z,9.07
2022-10-19T16:21:07.664Z,8.77
2022-10-19T16:24:10.004Z,8.27
2022-10-19T16:30:17.563Z,9.15
2022-10-19T16:33:19.848Z,10.13
2022-10-19T16:36:21.720Z,12.05
2022-10-19T16:39:25.563Z,12.10
2022-10-19T16:42:30.395Z,12.85
2022-10-19T16:45:32.532Z,14.13
2022-10-19T16:48:34.652Z,13.75
2022-10-19T16:51:40.626Z,13.10
2022-10-19T16:54:42.484Z,13.45
2022-10-19T16:57:44.310Z,13.52
2022-10-19T17:00:46.099Z,11.32
2022-10-19T17:03:48.344Z,11.15
2022-10-19T17:06:50.208Z,11.23
2022-10-19T17:09:54.735Z,11.50
2022-10-19T17:12:56.822Z,12.15
2022-10-19T17:16:02.938Z,11.60
2022-10-19T17:19:05.501Z,12.75
2022-10-19T17:22:07.348Z,12.48
2022-10-19T17:25:09.701Z,12.02
2022-10-19T17:31:13.946Z,11.65
2022-10-19T17:34:15.957Z,12.82
2022-10-19T17:37:17.813Z,13.00
2022-10-19T17:40:19.604Z,13.48
2022-10-19T17:43:21.413Z,12.88
2022-10-19T17:46:29.296Z,10.88
2022-10-19T17:49:31.126Z,11.13
2022-10-19T17:52:32.911Z,11.27
2022-10-19T17:55:36.860Z,10.98
2022-10-19T17:58:39.945Z,12.82
2022-10-19T18:01:42.182Z,11.05
2022-10-19T18:04:43.995Z,11.45
2022-10-19T18:07:45.873Z,11.48
2022-10-19T18:10:47.699Z,11.52
2022-10-19T18:13:49.870Z,12.15
2022-10-19T18:16:52.163Z,11.40
2022-10-19T18:19:53.986Z,12.38
2022-10-19T18:22:55.855Z,11.80
2022-10-19T18:26:02.129Z,12.02
2022-10-19T18:29:10.419Z,12.52
2022-10-19T18:32:12.316Z,13.25
2022-10-19T18:35:14.288Z,12.38
2022-10-19T18:38:16.092Z,13.13
2022-10-19T18:41:18.092Z,12.77
2022-10-19T18:44:25.227Z,12.52
2022-10-19T18:47:30.137Z,13.60
2022-10-19T18:50:32.010Z,11.70
2022-10-19T18:53:34.112Z,12.68
2022-10-19T18:56:38.748Z,12.50
2022-10-19T18:59:40.605Z,12.55
2022-10-19T19:02:46.928Z,13.95
2022-10-19T19:05:49.108Z,13.27
2022-10-19T19:08:51.220Z,14.57
2022-10-19T19:11:54.390Z,14.18
2022-10-19T19:14:56.227Z,13.20
2022-10-19T19:17:58.053Z,14.98
2022-10-19T19:21:03.581Z,14.00
2022-10-19T19:24:06.095Z,13.77
2022-10-19T19:27:08.145Z,14.88
2022-10-19T19:30:10.303Z,14.23
2022-10-19T19:33:12.641Z,14.30
2022-10-19T19:39:19.451Z,14.02
2022-10-19T19:42:23.300Z,14.90
2022-10-19T19:45:28.865Z,14.77
2022-10-19T19:48:30.752Z,14.45
2022-10-19T19:51:32.784Z,15.77
2022-10-19T19:54:34.653Z,15.55
2022-10-19T19:57:36.905Z,16.55
2022-10-19T20:00:39.501Z,16.23
2022-10-19T20:06:44.607Z,14.52
2022-10-19T20:09:46.472Z,15.82
2022-10-19T20:12:48.296Z,16.92
2022-10-19T20:15:50.119Z,16.45
2022-10-19T20:18:52.871Z,16.40
2022-10-19T20:21:56.385Z,17.80
2022-10-19T20:24:58.222Z,17.45
2022-10-19T20:28:00.081Z,16.85
2022-10-19T20:31:06.237Z,16.05
2022-10-19T20:34:12.275Z,17.58
2022-10-19T20:37:14.112Z,17.17
2022-10-19T20:40:16.443Z,18.83
2022-10-19T20:46:22.324Z,16.23
2022-10-19T20:49:24.168Z,17.67
2022-10-19T20:52:26.009Z,19.02
2022-10-19T20:55:27.841Z,18.77
2022-10-19T20:58:29.772Z,18.13
2022-10-19T21:01:32.126Z,19.00
2022-10-19T21:07:36.323Z,18.25
2022-10-19T21:10:38.217Z,19.55
2022-10-19T21:13:40.076Z,18.25
2022-10-19T21:16:42.185Z,19.25
2022-10-19T21:19:43.992Z,17.48
2022-10-19T21:22:45.847Z,19.85
2022-10-19T21:25:54.847Z,19.45
2022-10-19T21:28:56.756Z,18.98
2022-10-19T21:31:58.609Z,18.50
2022-10-19T21:35:00.543Z,18.02
2022-10-19T21:38:02.446Z,20.02
2022-10-19T21:41:12.029Z,18.65
2022-10-19T21:44:14.486Z,19.25
2022-10-19T21:47:16.288Z,19.00
2022-10-19T21:50:18.177Z,20.15
2022-10-19T21:53:20.447Z,18.90
2022-10-19T21:56:22.299Z,19.48
2022-10-19T21:59:24.621Z,18.45
2022-10-19T22:05:28.224Z,17.95
2022-10-19T22:08:30.124Z,19.27
2022-10-19T22:11:32.190Z,17.92
2022-10-19T22:14:34.013Z,20.92
2022-10-19T22:17:35.841Z,20.35
2022-10-19T22:20:38.432Z,20.05
2022-10-19T22:23:40.396Z,20.17
2022-10-19T22:26:44.546Z,18.17
2022-10-19T22:29:46.399Z,18.27
2022-10-19T22:32:48.187Z,18.08
2022-10-19T22:35:57.192Z,19.23
2022-10-19T22:38:59.021Z,17.95
2022-10-19T22:42:00.854Z,17.90
2022-10-19T22:45:02.738Z,17.90
2022-10-19T22:48:04.864Z,19.35
2022-10-19T22:51:06.812Z,19.67
2022-10-19T22:54:08.650Z,18.60
2022-10-19T22:57:11.789Z,18.58
2022-10-19T23:00:13.822Z,19.13
2022-10-19T23:03:15.620Z,20.42
2022-10-19T23:06:17.452Z,18.35
2022-10-19T23:09:19.301Z,17.60
2022-10-19T23:12:21.285Z,18.92
2022-10-19T23:15:23.161Z,20.50
2022-10-19T23:18:25.103Z,18.10
2022-10-19T23:21:26.988Z,17.65
2022-10-19T23:24:28.820Z,19.10
2022-10-19T23:27:30.630Z,17.65
2022-10-19T23:30:32.487Z,18.42
2022-10-19T23:33:34.318Z,17.92
2022-10-19T23:36:36.133Z,18.27
2022-10-19T23:39:37.940Z,18.92
2022-10-19T23:42:39.783Z,19.17
2022-10-19T23:45:41.600Z,19.42
2022-10-19T23:48:43.553Z,20.33
2022-10-19T23:51:45.412Z,19.00
2022-10-19T23:54:47.247Z,18.17
2022-10-19T23:57:49.076Z,17.98
